Time;durP1;ratioP1;P1;durP2;ratioP2;P2;SDS_P1;SDS_P2;PMS_P1;PMS_P2;Temp;Humidity;BMP_temperature;BMP_pressure;BME280_temperature;BME280_humidity;BME280_pressure;Samples;Min_cycle;Max_cycle;Signal;HPM_P1;HPM_P2
2021/11/07 00:07:11;;;;;;;124.20;85.70;;;;;;;-0.05;89.01;99685.84;112456;1192;63987;-77
2021/11/07 00:12:17;;;;;;;108.40;74.40;;;;;;;0.01;89.37;99671.98;112541;1192;61865;-77
2021/11/07 00:14:52;;;;;;;103.80;68.90;;;;;;;0.03;89.51;99664.42;112521;1192;67801;-74
2021/11/07 00:17:23;;;;;;;100.00;68.60;;;;;;;0.07;89.56;99660.01;112526;1192;61756;-75
2021/11/07 00:20:42;;;;;;;104.10;68.00;;;;;;;0.10;89.47;99660.84;112500;1192;62762;-76
2021/11/07 00:22:48;;;;;;;102.10;68.80;;;;;;;0.11;89.29;99663.98;112442;1193;61865;-77
2021/11/07 00:27:51;;;;;;;111.90;71.30;;;;;;;0.07;89.31;99654.23;112513;1193;65567;-76
2021/11/07 00:38:18;;;;;;;107.50;69.90;;;;;;;-0.01;89.11;99644.73;112612;1192;61919;-75
2021/11/07 00:43:24;;;;;;;102.40;71.40;;;;;;;-0.03;89.48;99634.98;112510;1192;61826;-74
2021/11/07 00:48:46;;;;;;;109.80;72.40;;;;;;;0.07;89.87;99622.44;112558;1192;61839;-78
2021/11/07 00:53:51;;;;;;;102.10;69.20;;;;;;;0.07;89.69;99619.82;112582;1193;66887;-77
2021/11/07 00:56:25;;;;;;;101.00;67.80;;;;;;;0.05;89.61;99616.69;112551;1193;61743;-77
2021/11/07 01:01:22;;;;;;;89.80;59.60;;;;;;;-0.02;89.49;99607.72;112548;1192;61858;-76
2021/11/07 01:03:48;;;;;;;91.40;59.70;;;;;;;-0.04;89.33;99600.05;112536;1191;61964;-76
2021/11/07 01:06:15;;;;;;;89.80;61.90;;;;;;;-0.07;89.24;99600.27;112526;1192;66719;-76
2021/11/07 01:08:42;;;;;;;95.50;62.80;;;;;;;-0.08;89.33;99601.70;112449;1193;61801;-75
2021/11/07 01:11:09;;;;;;;95.70;63.80;;;;;;;-0.09;89.44;99598.55;112591;1192;63894;-76
2021/11/07 01:13:35;;;;;;;100.10;66.80;;;;;;;-0.12;89.31;99595.64;112443;1193;61933;-76
2021/11/07 01:16:02;;;;;;;97.10;64.00;;;;;;;-0.14;89.43;99590.61;112512;1192;61829;-77
2021/11/07 01:18:29;;;;;;;109.60;68.10;;;;;;;-0.16;89.62;99584.85;112511;1193;66582;-77
2021/11/07 01:20:57;;;;;;;97.40;65.90;;;;;;;-0.16;89.71;99580.48;112496;1193;61750;-76
2021/11/07 01:23:32;;;;;;;96.80;65.70;;;;;;;-0.18;89.63;99579.84;112496;1193;64121;-76
2021/11/07 01:26:08;;;;;;;93.50;61.40;;;;;;;-0.22;89.61;99582.33;112524;1192;61844;-74
2021/11/07 01:28:46;;;;;;;95.50;60.00;;;;;;;-0.22;89.75;99573.07;112467;1192;61784;-74
2021/11/07 01:31:13;;;;;;;102.30;62.60;;;;;;;-0.20;89.91;99571.64;112470;1193;66929;-78
2021/11/07 01:33:41;;;;;;;95.20;61.20;;;;;;;-0.18;89.96;99568.47;112428;1193;61856;-76
2021/11/07 01:36:56;;;;;;;91.80;60.20;;;;;;;-0.13;90.05;99567.52;112516;1193;62645;-77
2021/11/07 01:44:20;;;;;;;104.60;66.90;;;;;;;0.04;90.11;99547.02;112582;1192;65642;-76
2021/11/07 01:46:51;;;;;;;97.50;66.80;;;;;;;0.05;90.16;99541.93;112545;1193;61788;-77
2021/11/07 01:49:20;;;;;;;95.20;65.70;;;;;;;0.02;89.97;99540.94;112555;1192;65010;-77
2021/11/07 01:51:50;;;;;;;90.10;58.20;;;;;;;-0.03;89.86;99542.24;112533;1192;61825;-75
2021/11/07 01:54:23;;;;;;;87.90;58.10;;;;;;;-0.06;89.89;99544.55;112505;1193;61861;-75
2021/11/07 01:56:50;;;;;;;87.80;56.70;;;;;;;-0.08;89.82;99545.62;112484;1192;67763;-76
2021/11/07 01:59:18;;;;;;;93.40;60.60;;;;;;;-0.09;89.76;99543.73;112509;1192;61733;-76
2021/11/07 02:01:58;;;;;;;103.30;65.00;;;;;;;-0.08;89.85;99539.86;112512;1187;63720;-76
2021/11/07 02:04:25;;;;;;;96.70;63.90;;;;;;;-0.04;89.98;99529.67;112515;1192;61778;-76
2021/11/07 02:06:51;;;;;;;99.90;63.40;;;;;;;-0.06;89.94;99521.31;112564;1192;61813;-76
2021/11/07 02:09:18;;;;;;;93.10;64.10;;;;;;;-0.05;90.17;99524.45;112508;1193;66473;-76
2021/11/07 02:11:45;;;;;;;96.10;65.60;;;;;;;-0.06;90.00;99524.81;112514;1191;61862;-75
2021/11/07 02:14:12;;;;;;;95.40;65.60;;;;;;;-0.11;90.10;99523.30;112534;1192;63920;-75
2021/11/07 02:16:39;;;;;;;98.90;63.30;;;;;;;-0.16;90.10;99525.67;112529;1193;61769;-77
2021/11/07 02:19:06;;;;;;;95.30;64.50;;;;;;;-0.20;90.15;99528.35;112526;1192;61948;-78
2021/11/07 02:21:32;;;;;;;98.70;65.30;;;;;;;-0.20;90.38;99535.85;112511;1193;66919;-76
2021/11/07 02:24:00;;;;;;;86.60;60.30;;;;;;;-0.16;90.57;99541.54;112490;1192;61785;-76
2021/11/07 02:26:27;;;;;;;93.60;60.90;;;;;;;-0.11;90.73;99534.30;112496;1192;64974;-76
2021/11/07 02:28:54;;;;;;;102.10;65.80;;;;;;;-0.07;90.88;99523.77;112517;1192;61817;-76
2021/11/07 02:31:21;;;;;;;105.20;68.10;;;;;;;-0.02;91.18;99522.29;112513;1192;61829;-76
2021/11/07 02:33:48;;;;;;;103.30;69.30;;;;;;;0.03;91.30;99516.98;112545;1192;66686;-76
2021/11/07 02:36:17;;;;;;;115.70;73.90;;;;;;;0.06;91.36;99514.68;112532;1192;61749;-77
2021/11/07 02:38:45;;;;;;;104.00;71.10;;;;;;;0.06;91.15;99509.24;112552;1193;71276;-76
2021/11/07 02:41:12;;;;;;;105.00;72.50;;;;;;;0.03;91.03;99500.39;112546;1192;62396;-75
2021/11/07 02:43:45;;;;;;;94.90;68.40;;;;;;;0.02;91.23;99502.33;112494;1192;61788;-76
2021/11/07 02:46:17;;;;;;;89.20;63.50;;;;;;;0.01;91.38;99503.57;112520;1192;66853;-77
2021/11/07 02:48:46;;;;;;;92.40;60.10;;;;;;;-0.01;91.16;99498.17;112542;1193;61878;-75
2021/11/07 02:51:14;;;;;;;98.10;68.20;;;;;;;-0.01;91.05;99494.85;112570;1193;62636;-74
2021/11/07 02:53:41;;;;;;;95.80;68.40;;;;;;;0.00;91.24;99485.59;112531;1192;61817;-77
2021/11/07 02:56:08;;;;;;;97.00;70.60;;;;;;;0.04;91.39;99471.38;112524;1192;61879;-76
2021/11/07 02:58:35;;;;;;;105.20;73.50;;;;;;;0.03;91.36;99458.98;112376;1192;66930;-76
2021/11/07 03:01:05;;;;;;;112.80;78.40;;;;;;;-0.01;91.32;99462.02;112559;1191;61858;-75
2021/11/07 03:03:32;;;;;;;;;;;;;;;-0.11;91.21;99466.20;112570;1192;62813;-77
2021/11/07 03:06:01;;;;;;;117.60;83.30;;;;;;;-0.20;91.27;99463.02;112562;1193;61790;-76
2021/11/07 03:08:29;;;;;;;108.30;79.70;;;;;;;-0.26;91.28;99458.23;112534;1193;61775;-76
2021/11/07 03:10:59;;;;;;;118.70;86.50;;;;;;;-0.27;91.44;99453.89;112537;1193;66784;-75
2021/11/07 03:13:26;;;;;;;;;;;;;;;-0.27;91.59;99457.02;112528;1193;61852;-75
2021/11/07 03:15:52;;;;;;;100.80;69.60;;;;;;;-0.26;91.53;99461.56;112490;1187;61762;-75
2021/11/07 03:18:19;;;;;;;97.60;72.20;;;;;;;-0.28;91.52;99458.09;112545;1192;61828;-76
2021/11/07 03:20:46;;;;;;;108.10;74.80;;;;;;;-0.28;91.46;99456.69;112578;1183;61848;-77
2021/11/07 03:23:20;;;;;;;108.60;78.30;;;;;;;-0.28;91.44;99452.67;112527;1192;67820;-77
2021/11/07 03:25:51;;;;;;;114.30;82.50;;;;;;;-0.28;91.47;99443.60;112565;1193;61846;-77
2021/11/07 03:28:18;;;;;;;118.10;85.70;;;;;;;-0.29;91.52;99450.27;112496;1192;64965;-76
2021/11/07 03:31:02;;;;;;;120.50;85.90;;;;;;;-0.33;91.60;99463.40;112499;1193;61855;-75
2021/11/07 03:33:51;;;;;;;124.70;88.80;;;;;;;-0.35;91.65;99460.98;112538;1193;61826;-77
2021/11/07 03:36:19;;;;;;;108.80;79.70;;;;;;;-0.37;91.68;99460.33;112461;1193;66802;-78
2021/11/07 03:38:53;;;;;;;129.40;93.80;;;;;;;-0.38;91.67;99459.64;112568;1192;61707;-76
2021/11/07 03:41:20;;;;;;;115.20;83.60;;;;;;;-0.39;91.76;99453.56;112526;1193;64952;-77
2021/11/07 03:43:48;;;;;;;133.80;97.10;;;;;;;-0.40;91.95;99454.09;112459;1193;61804;-75
2021/11/07 03:46:16;;;;;;;135.80;101.50;;;;;;;-0.36;92.25;99452.45;112535;1193;61862;-77
2021/11/07 03:48:43;;;;;;;138.00;101.00;;;;;;;-0.37;92.35;99444.98;112542;1192;66818;-76
2021/11/07 03:51:14;;;;;;;125.50;95.40;;;;;;;-0.41;92.42;99444.52;112399;1192;61858;-78
2021/11/07 03:53:41;;;;;;;121.20;88.10;;;;;;;-0.42;92.58;99444.35;112476;1192;62612;-78
2021/11/07 03:56:09;;;;;;;116.20;85.00;;;;;;;-0.40;92.66;99441.00;112521;1193;61827;-77
2021/11/07 03:58:36;;;;;;;113.00;82.70;;;;;;;-0.38;92.73;99439.05;112502;1192;61747;-77
2021/11/07 04:01:03;;;;;;;108.10;82.80;;;;;;;-0.35;92.81;99435.33;112516;1192;66447;-76
2021/11/07 04:03:30;;;;;;;102.70;75.50;;;;;;;-0.31;92.74;99438.23;112565;1193;67901;-77
2021/11/07 04:05:56;;;;;;;107.40;78.40;;;;;;;-0.27;92.75;99441.83;112377;1193;65018;-76
2021/11/07 04:08:23;;;;;;;96.80;73.00;;;;;;;-0.20;92.78;99446.80;112546;1193;61957;-75
2021/11/07 04:10:50;;;;;;;119.20;86.70;;;;;;;-0.14;92.74;99447.23;112566;1193;61787;-76
2021/11/07 04:13:16;;;;;;;111.10;87.90;;;;;;;-0.11;92.64;99443.69;112583;1192;68218;-76
2021/11/07 04:15:43;;;;;;;111.60;81.90;;;;;;;-0.10;92.61;99441.23;112514;1191;61932;-76
2021/11/07 04:18:10;;;;;;;118.40;88.30;;;;;;;-0.10;92.78;99436.67;112480;1192;64068;-76
2021/11/07 04:20:38;;;;;;;113.90;84.00;;;;;;;-0.06;92.92;99436.61;112523;1192;61778;-76
2021/11/07 04:23:04;;;;;;;113.90;87.00;;;;;;;0.01;92.95;99432.47;112565;1192;61865;-76
2021/11/07 04:25:32;;;;;;;110.20;84.30;;;;;;;0.08;92.95;99424.14;112550;1192;66794;-76
2021/11/07 04:27:58;;;;;;;105.80;78.30;;;;;;;0.13;92.98;99417.59;112527;1192;61772;-75
2021/11/07 04:30:25;;;;;;;97.70;76.40;;;;;;;0.19;93.00;99412.39;112474;1191;64988;-77
2021/11/07 04:32:52;;;;;;;96.00;73.20;;;;;;;0.24;92.72;99412.51;112501;1193;61839;-75
2021/11/07 04:35:19;;;;;;;96.70;75.20;;;;;;;0.23;92.56;99411.30;112533;1192;61775;-75
2021/11/07 04:37:45;;;;;;;101.60;76.40;;;;;;;0.24;92.65;99402.19;112538;1192;66836;-78
2021/11/07 04:40:15;;;;;;;113.90;82.70;;;;;;;0.25;92.60;99393.79;112362;1184;61945;-76
2021/11/07 04:42:44;;;;;;;109.40;82.70;;;;;;;0.32;92.90;99391.73;112570;1192;64101;-76
2021/11/07 04:45:11;;;;;;;115.10;86.20;;;;;;;0.34;92.71;99381.21;112517;1192;61823;-76
2021/11/07 04:47:38;;;;;;;115.90;88.30;;;;;;;0.35;92.61;99374.02;112550;1192;61759;-76
2021/11/07 04:50:07;;;;;;;105.80;82.80;;;;;;;0.40;92.75;99362.55;112364;1193;66916;-76
2021/11/07 04:52:34;;;;;;;106.90;78.70;;;;;;;0.47;92.80;99355.44;112461;1192;61846;-76
2021/11/07 04:55:00;;;;;;;100.20;74.20;;;;;;;0.51;92.65;99354.98;112525;1193;64020;-76
2021/11/07 04:57:27;;;;;;;94.50;70.80;;;;;;;0.56;92.64;99350.88;112385;1192;61841;-76
2021/11/07 04:59:54;;;;;;;92.60;72.30;;;;;;;0.65;92.83;99341.25;112580;1193;61826;-76
2021/11/07 05:02:20;;;;;;;103.30;76.70;;;;;;;0.74;92.85;99338.41;112576;1192;67867;-76
2021/11/07 05:04:52;;;;;;;100.40;75.90;;;;;;;0.82;92.83;99333.01;112542;1192;61874;-76
2021/11/07 05:07:20;;;;;;;99.50;77.80;;;;;;;0.90;92.90;99327.75;112485;1191;63986;-77
2021/11/07 05:09:47;;;;;;;108.60;83.10;;;;;;;0.90;92.67;99325.50;112552;1192;61983;-75
2021/11/07 05:12:14;;;;;;;100.20;80.20;;;;;;;0.90;92.67;99317.27;112550;1193;61826;-76
2021/11/07 05:14:40;;;;;;;96.60;75.20;;;;;;;0.90;92.64;99317.63;112493;1192;67807;-76
2021/11/07 05:17:07;;;;;;;101.80;73.80;;;;;;;0.92;92.83;99313.38;112512;1192;61886;-76
2021/11/07 05:19:36;;;;;;;91.40;70.70;;;;;;;0.95;92.95;99308.58;112486;1191;64101;-75
2021/11/07 05:22:04;;;;;;;94.80;70.20;;;;;;;0.99;93.07;99302.18;112481;1192;61788;-76
2021/11/07 05:24:32;;;;;;;90.90;69.10;;;;;;;1.02;93.00;99299.16;112583;1192;61825;-77
2021/11/07 05:26:59;;;;;;;83.30;65.80;;;;;;;1.05;93.10;99290.69;112516;1192;66970;-77
2021/11/07 05:29:26;;;;;;;86.80;69.90;;;;;;;1.13;93.22;99278.41;112529;1193;61932;-77
2021/11/07 05:31:55;;;;;;;96.80;77.00;;;;;;;1.20;93.06;99272.47;112504;1192;63998;-77
2021/11/07 05:34:22;;;;;;;104.70;79.70;;;;;;;1.24;93.16;99265.73;112511;1193;61788;-77
2021/11/07 05:36:48;;;;;;;100.30;77.70;;;;;;;1.27;93.09;99260.38;112525;1192;61814;-77
2021/11/07 05:39:15;;;;;;;105.30;80.00;;;;;;;1.25;93.06;99256.26;112516;1192;66797;-77
2021/11/07 05:41:41;;;;;;;104.60;78.20;;;;;;;1.19;92.89;99254.64;112353;1192;61961;-77
2021/11/07 05:44:08;;;;;;;110.20;81.80;;;;;;;1.13;92.92;99251.30;112471;1192;64004;-77
2021/11/07 05:46:36;;;;;;;104.60;77.90;;;;;;;1.10;92.93;99248.56;112479;1193;61860;-78
2021/11/07 05:49:03;;;;;;;108.10;78.80;;;;;;;1.07;93.10;99249.67;112570;1191;61775;-75
2021/11/07 05:51:30;;;;;;;94.60;72.70;;;;;;;1.02;93.23;99257.67;112515;1192;66817;-76
2021/11/07 05:53:58;;;;;;;99.10;75.20;;;;;;;0.99;93.32;99266.34;112625;1192;61961;-76
2021/11/07 05:56:25;;;;;;;106.60;78.00;;;;;;;1.00;93.32;99272.77;112542;1192;62623;-76
2021/11/07 05:58:52;;;;;;;103.10;74.20;;;;;;;1.03;93.36;99273.76;112557;1192;61944;-76
2021/11/07 06:01:18;;;;;;;96.80;71.40;;;;;;;1.04;93.35;99275.30;112522;1192;61730;-75
2021/11/07 06:03:45;;;;;;;102.20;76.60;;;;;;;1.07;93.36;99283.80;112550;1193;66849;-78
2021/11/07 06:06:12;;;;;;;103.60;75.50;;;;;;;1.10;93.46;99276.36;112583;1193;61881;-78
2021/11/07 06:08:39;;;;;;;95.10;73.10;;;;;;;1.14;93.45;99267.88;112465;1192;64970;-75
2021/11/07 06:11:06;;;;;;;97.90;73.60;;;;;;;1.18;93.48;99268.48;112529;1192;61784;-77
2021/11/07 06:13:32;;;;;;;94.50;73.80;;;;;;;1.24;93.44;99272.20;112528;1192;61850;-76
2021/11/07 06:15:59;;;;;;;96.00;72.80;;;;;;;1.29;93.51;99268.73;112519;1192;66807;-77
2021/11/07 06:18:26;;;;;;;119.70;84.10;;;;;;;1.34;93.48;99266.88;112343;1192;61856;-76
2021/11/07 06:20:52;;;;;;;113.70;83.20;;;;;;;1.37;93.39;99265.41;112473;1192;63293;-76
2021/11/07 06:23:19;;;;;;;105.90;84.20;;;;;;;1.39;93.41;99264.81;112525;1192;61855;-75
2021/11/07 06:25:46;;;;;;;98.50;74.10;;;;;;;1.44;93.49;99260.48;112495;1193;61764;-77
2021/11/07 06:28:15;;;;;;;103.00;78.40;;;;;;;1.48;93.73;99267.73;112500;1192;66779;-76
2021/11/07 06:30:43;;;;;;;106.90;80.10;;;;;;;1.49;93.67;99270.52;112526;1192;61839;-76
2021/11/07 06:33:10;;;;;;;104.60;80.00;;;;;;;1.52;93.75;99268.69;112531;1192;64667;-77
2021/11/07 06:35:36;;;;;;;105.50;81.60;;;;;;;1.60;93.76;99266.58;112459;1192;61862;-77
2021/11/07 06:38:03;;;;;;;99.10;76.90;;;;;;;1.69;93.77;99264.23;112452;1192;61899;-75
2021/11/07 06:40:30;;;;;;;99.10;75.80;;;;;;;1.73;93.77;99261.49;112558;1193;66527;-77
2021/11/07 06:42:57;;;;;;;105.10;83.30;;;;;;;1.76;93.81;99262.46;112606;1192;61775;-76
2021/11/07 06:45:23;;;;;;;109.10;83.50;;;;;;;1.80;93.89;99259.73;112503;1193;63676;-76
2021/11/07 06:47:50;;;;;;;98.30;77.70;;;;;;;1.86;93.88;99256.73;112559;1192;61855;-78
2021/11/07 06:50:17;;;;;;;104.40;81.60;;;;;;;1.96;93.87;99256.84;112571;1192;61960;-78
2021/11/07 06:52:44;;;;;;;108.30;85.90;;;;;;;2.07;93.93;99258.47;112592;1193;66542;-78
2021/11/07 06:55:12;;;;;;;108.90;86.00;;;;;;;2.15;93.84;99258.90;112575;1193;61839;-77
2021/11/07 06:57:39;;;;;;;105.00;84.00;;;;;;;2.26;93.83;99251.95;112310;1193;64689;-77
2021/11/07 07:00:09;;;;;;;116.20;86.50;;;;;;;2.34;93.85;99245.20;112302;1193;61968;-77
2021/11/07 07:02:39;;;;;;;107.60;87.60;;;;;;;2.43;93.83;99239.50;112582;1191;61778;-76
2021/11/07 07:05:08;;;;;;;109.00;85.80;;;;;;;2.55;93.72;99229.85;112541;1192;66686;-77
2021/11/07 07:07:37;;;;;;;101.10;83.70;;;;;;;2.66;93.66;99222.86;112521;1193;61785;-76
2021/11/07 07:10:07;;;;;;;102.40;84.70;;;;;;;2.77;93.59;99222.51;112557;1192;63883;-75
2021/11/07 07:13:00;;;;;;;106.10;82.10;;;;;;;2.91;93.54;99221.35;112482;1193;61850;-75
2021/11/07 07:15:35;;;;;;;100.30;80.00;;;;;;;3.07;93.39;99216.10;112408;1192;61861;-77
2021/11/07 07:18:32;;;;;;;96.80;79.00;;;;;;;3.25;93.21;99213.42;112536;1193;66734;-77
2021/11/07 07:21:13;;;;;;;108.00;87.50;;;;;;;3.51;92.98;99216.92;112421;1193;61968;-76
2021/11/07 07:34:18;;;;;;;86.30;70.10;;;;;;;4.60;91.93;99179.48;112599;1192;61605;-75
2021/11/07 07:36:45;;;;;;;80.50;64.40;;;;;;;4.80;91.46;99179.22;112326;1193;62358;-76
2021/11/07 07:39:12;;;;;;;83.40;65.60;;;;;;;4.98;91.16;99180.95;112547;1192;61779;-76
2021/11/07 07:41:39;;;;;;;77.00;65.50;;;;;;;5.14;91.02;99178.32;112518;1192;61778;-76
2021/11/07 07:44:08;;;;;;;76.20;60.70;;;;;;;5.27;90.88;99167.56;112510;1192;65167;-75
2021/11/07 07:46:37;;;;;;;76.20;61.20;;;;;;;5.37;90.83;99159.73;112296;1192;62021;-76
2021/11/07 07:49:04;;;;;;;68.80;58.00;;;;;;;5.49;90.71;99158.84;112610;1193;63994;-76
2021/11/07 07:51:31;;;;;;;64.50;52.30;;;;;;;5.58;90.71;99157.40;112546;1192;61861;-76
2021/11/07 07:54:02;;;;;;;59.50;47.80;;;;;;;5.66;90.71;99149.50;112526;1192;61862;-76
2021/11/07 07:56:34;;;;;;;52.30;41.00;;;;;;;5.70;90.48;99142.42;112572;1192;66874;-78
2021/11/07 07:59:02;;;;;;;43.10;35.10;;;;;;;5.71;90.17;99140.62;112585;1193;62570;-78
2021/11/07 08:01:29;;;;;;;39.80;31.40;;;;;;;5.67;89.95;99133.55;112547;1193;63711;-78
2021/11/07 08:03:56;;;;;;;37.10;29.80;;;;;;;5.66;89.73;99137.86;112525;1193;61948;-77
2021/11/07 08:06:23;;;;;;;42.60;34.90;;;;;;;5.68;89.54;99137.39;112550;1193;61839;-77
2021/11/07 08:08:49;;;;;;;38.60;30.20;;;;;;;5.75;89.33;99136.23;112502;1192;66538;-78
2021/11/07 08:11:18;;;;;;;40.10;30.50;;;;;;;5.81;89.08;99137.20;112511;1193;61964;-78
2021/11/07 08:13:51;;;;;;;37.10;29.80;;;;;;;5.84;88.88;99138.09;112507;1193;65025;-78
2021/11/07 08:16:22;;;;;;;41.30;32.10;;;;;;;5.88;88.92;99131.75;112584;1192;61910;-77
2021/11/07 08:18:50;;;;;;;42.70;34.00;;;;;;;6.02;88.84;99125.45;112617;1177;61848;-76
2021/11/07 08:21:17;;;;;;;44.70;34.70;;;;;;;6.19;88.66;99127.35;112537;1183;66821;-74
2021/11/07 08:23:47;;;;;;;43.50;34.80;;;;;;;6.33;88.58;99121.58;112538;1193;61823;-75
2021/11/07 08:26:15;;;;;;;;;;;;;;;6.44;88.42;99110.98;112575;1193;62329;-75
2021/11/07 08:28:44;;;;;;;44.60;33.80;;;;;;;6.50;87.86;99105.06;112517;1192;61833;-75
2021/11/07 08:31:19;;;;;;;38.10;29.60;;;;;;;6.54;87.89;99097.96;112524;1193;61852;-75
2021/11/07 08:33:45;;;;;;;39.30;30.70;;;;;;;6.56;87.57;99094.17;112527;1177;67453;-76
2021/11/07 08:36:39;;;;;;;44.10;31.70;;;;;;;6.57;87.44;99089.52;112514;1193;61842;-76
2021/11/07 08:39:15;;;;;;;45.20;33.20;;;;;;;6.60;87.37;99077.04;112312;1193;73825;-76
2021/11/07 08:41:47;;;;;;;43.30;33.80;;;;;;;6.70;87.32;99074.20;112330;1192;61801;-75
2021/11/07 09:01:06;;;;;;;47.50;32.80;;;;;;;7.55;85.34;99059.23;112456;1193;65469;-76
2021/11/07 09:03:47;;;;;;;40.90;31.20;;;;;;;7.78;85.29;99056.95;112440;1192;61780;-76
2021/11/07 09:06:42;;;;;;;42.20;31.60;;;;;;;8.06;85.21;99055.73;112395;1192;64647;-76
2021/11/07 09:09:08;;;;;;;39.50;30.70;;;;;;;8.39;84.45;99046.14;112453;1192;61864;-77
2021/11/07 09:11:35;;;;;;;39.40;30.90;;;;;;;8.62;83.70;99044.63;112335;1192;61856;-75
2021/11/07 09:14:02;;;;;;;34.60;27.80;;;;;;;8.85;83.11;99043.13;112401;1193;66644;-76
2021/11/07 09:16:29;;;;;;;34.70;27.10;;;;;;;9.05;82.87;99034.30;112432;1192;61935;-75
2021/11/07 09:18:59;;;;;;;37.50;28.50;;;;;;;9.17;82.45;99037.45;112467;1191;64145;-76
2021/11/07 09:21:30;;;;;;;37.70;30.30;;;;;;;9.23;82.10;99032.13;112531;1193;61852;-78
2021/11/07 09:24:03;;;;;;;37.80;29.30;;;;;;;9.22;81.71;99026.15;112343;1193;61827;-77
2021/11/07 09:34:06;;;;;;;31.00;25.50;;;;;;;9.26;81.32;99004.69;112554;1193;61939;-76
2021/11/07 09:36:45;;;;;;;28.80;22.30;;;;;;;9.34;81.18;98996.73;112514;1192;61836;-72
2021/11/07 09:44:21;;;;;;;8.10;5.80;;;;;;;9.55;79.13;98983.55;112473;1193;62650;-76
2021/11/07 09:47:00;;;;;;;6.20;4.20;;;;;;;9.73;77.73;98980.97;112363;1193;61808;-77
2021/11/07 09:49:31;;;;;;;4.50;3.50;;;;;;;9.92;77.78;98980.33;112516;1192;61874;-75
2021/11/07 09:52:09;;;;;;;8.40;5.00;;;;;;;10.06;77.12;98984.92;112487;1192;66474;-78
2021/11/07 09:54:36;;;;;;;5.80;4.30;;;;;;;10.16;76.94;98976.65;112582;1192;61794;-80
2021/11/07 09:57:05;;;;;;;6.60;4.30;;;;;;;10.28;76.19;98972.30;112572;1192;62318;-75
2021/11/07 09:59:32;;;;;;;5.10;3.70;;;;;;;10.40;75.57;98974.04;112558;1193;61773;-76
2021/11/07 10:02:03;;;;;;;7.60;5.90;;;;;;;10.49;75.09;98975.17;112343;1192;61797;-72
2021/11/07 10:04:32;;;;;;;;;;;;;;;10.58;74.73;98978.11;112511;1193;66503;-75
2021/11/07 10:07:18;;;;;;;4.10;3.10;;;;;;;10.66;73.87;98974.71;112531;1193;61832;-75
2021/11/07 10:09:47;;;;;;;4.50;3.20;;;;;;;10.78;73.59;98971.13;112531;1193;64004;-75
2021/11/07 10:13:03;;;;;;;4.80;3.30;;;;;;;10.86;72.88;98966.31;112552;1177;61855;-75
2021/11/07 10:15:09;;;;;;;3.30;3.00;;;;;;;10.96;72.94;98958.14;112510;1192;61836;-77
2021/11/07 10:17:47;;;;;;;4.50;3.80;;;;;;;11.12;73.29;98952.92;112539;1192;67552;-76
2021/11/07 10:20:28;;;;;;;4.90;3.40;;;;;;;11.29;72.81;98951.89;112487;1193;62023;-75
2021/11/07 10:23:00;;;;;;;3.80;3.40;;;;;;;11.44;72.33;98938.23;112483;1192;63141;-76
2021/11/07 10:25:35;;;;;;;3.80;3.30;;;;;;;11.51;71.26;98934.70;112561;1193;61854;-74
2021/11/07 10:28:21;;;;;;;4.10;3.20;;;;;;;11.51;71.43;98936.09;112525;1193;61945;-75
2021/11/07 10:31:01;;;;;;;4.60;3.80;;;;;;;11.57;71.04;98931.98;112489;1192;68050;-76
2021/11/07 10:33:59;;;;;;;6.80;4.00;;;;;;;11.61;69.77;98928.09;112501;1193;62548;-73
2021/11/07 10:39:28;;;;;;;4.30;3.90;;;;;;;11.67;69.96;98908.25;112328;1192;61974;-76
2021/11/07 10:52:42;;;;;;;4.80;3.90;;;;;;;11.73;69.01;98882.77;112275;1192;61865;-76
2021/11/07 10:55:21;;;;;;;5.20;4.20;;;;;;;11.80;69.11;98876.55;112549;1193;61864;-76
2021/11/07 10:57:55;;;;;;;5.50;4.10;;;;;;;11.85;68.39;98869.91;112512;1192;65266;-76
2021/11/07 11:00:22;;;;;;;4.30;3.60;;;;;;;11.86;68.30;98864.65;112673;1192;61852;-74
2021/11/07 11:03:03;;;;;;;5.80;4.10;;;;;;;11.86;68.22;98859.88;112639;1192;63738;-84
2021/11/07 11:05:46;;;;;;;4.80;4.10;;;;;;;11.86;68.56;98863.98;112556;1193;61865;-82
2021/11/07 11:08:23;;;;;;;4.80;3.90;;;;;;;11.83;67.83;98861.54;112174;1195;61799;-84
2021/11/07 11:35:38;;;;;;;8.80;6.50;;;;;;;11.50;69.14;98810.73;112640;1193;61879;-82
2021/11/07 12:25:30;;;;;;;5.70;5.20;;;;;;;11.32;67.46;98730.06;112683;1206;599425;-72
2021/11/07 12:27:56;;;;;;;8.70;5.60;;;;;;;11.40;67.45;98728.41;112375;1193;59080;-74
2021/11/07 12:30:29;;;;;;;6.20;5.10;;;;;;;11.48;67.22;98725.17;112400;1193;58981;-76
2021/11/07 12:33:07;;;;;;;6.70;4.50;;;;;;;11.50;66.86;98726.65;112389;1193;64611;-74
2021/11/07 12:35:52;;;;;;;5.70;4.70;;;;;;;11.47;66.72;98724.86;112410;1193;60447;-73
2021/11/07 12:41:11;;;;;;;6.80;5.80;;;;;;;11.38;66.93;98718.23;112261;1195;59478;-72
2021/11/07 12:43:40;;;;;;;6.40;5.20;;;;;;;11.30;66.82;98713.52;112265;1195;59048;-73
2021/11/07 12:49:16;;;;;;;6.90;5.50;;;;;;;11.09;66.81;98708.11;112337;1196;61168;-72
2021/11/07 12:51:47;;;;;;;6.80;5.70;;;;;;;10.98;66.92;98711.75;112300;1195;65427;-72
2021/11/07 12:54:21;;;;;;;7.10;6.40;;;;;;;10.90;67.05;98716.30;112114;1196;59427;-73
2021/11/07 12:56:52;;;;;;;7.20;5.30;;;;;;;10.80;67.00;98707.57;112054;1196;59529;-73
2021/11/07 12:59:21;;;;;;;5.90;5.30;;;;;;;10.70;67.01;98705.05;112349;1194;66428;-72
2021/11/07 13:01:52;;;;;;;7.30;5.50;;;;;;;10.62;67.09;98708.02;112287;1195;61451;-73
2021/11/07 13:04:21;;;;;;;6.10;5.00;;;;;;;10.53;67.30;98709.34;112383;1194;64361;-71
2021/11/07 13:06:54;;;;;;;8.90;5.60;;;;;;;10.46;67.18;98697.23;112294;1179;59462;-73
2021/11/07 13:09:26;;;;;;;39.20;20.30;;;;;;;10.41;67.45;98692.08;112391;1196;59400;-72
2021/11/07 13:11:57;;;;;;;21.70;15.40;;;;;;;10.36;67.73;98691.20;112347;1196;65487;-72
2021/11/07 13:14:48;;;;;;;21.90;17.00;;;;;;;10.32;67.96;98692.89;111978;1196;61026;-73
2021/11/07 13:17:37;;;;;;;17.40;14.40;;;;;;;10.29;67.99;98691.35;112335;1196;65303;-72
2021/11/07 13:23:47;;;;;;;9.80;8.00;;;;;;;10.31;68.23;98694.58;111534;1199;59446;-72
2021/11/07 13:31:54;;;;;;;13.90;8.20;;;;;;;10.39;68.22;98667.67;111908;1196;64332;-71
2021/11/07 13:34:22;;;;;;;9.80;7.90;;;;;;;10.41;68.44;98669.00;112275;1195;59474;-71
2021/11/07 13:36:49;;;;;;;11.40;7.70;;;;;;;10.39;68.52;98669.14;111860;1197;59611;-71
2021/11/07 13:39:42;;;;;;;13.00;8.10;;;;;;;10.36;68.29;98661.35;112647;1193;65828;-71
2021/11/07 13:42:14;;;;;;;10.60;7.00;;;;;;;10.32;67.86;98652.38;112157;1196;61211;-72
2021/11/07 13:45:03;;;;;;;10.80;7.00;;;;;;;10.29;67.95;98648.89;112153;1196;65547;-72
2021/11/07 13:47:42;;;;;;;12.20;7.90;;;;;;;10.24;67.99;98641.42;112165;1195;59475;-72
2021/11/07 13:50:16;;;;;;;13.70;8.70;;;;;;;10.17;67.80;98636.39;112264;1196;59400;-73
2021/11/07 13:52:44;;;;;;;9.90;7.40;;;;;;;10.11;67.97;98634.33;112018;1197;66122;-80
2021/11/07 13:55:21;;;;;;;10.60;8.10;;;;;;;10.05;68.00;98635.97;112546;1196;60413;-79
2021/11/07 13:57:48;;;;;;;14.10;8.70;;;;;;;9.99;68.07;98635.04;112255;1196;65433;-80
2021/11/07 14:00:21;;;;;;;24.30;15.30;;;;;;;9.94;68.19;98634.88;112268;1196;59377;-80
2021/11/07 14:02:50;;;;;;;18.60;12.70;;;;;;;9.85;68.34;98636.00;112295;1196;60416;-80
2021/11/07 14:05:19;;;;;;;21.50;14.30;;;;;;;9.81;68.49;98638.23;112233;1198;64802;-81
2021/11/07 14:08:05;;;;;;;25.10;15.70;;;;;;;9.75;68.57;98638.09;112167;1196;59415;-77
2021/11/07 14:10:39;;;;;;;47.90;28.00;;;;;;;9.71;68.60;98637.66;112269;1196;64582;-79
2021/11/07 14:13:11;;;;;;;40.40;23.90;;;;;;;9.67;68.73;98638.09;112531;1196;59347;-79
2021/11/07 14:15:43;;;;;;;45.40;25.90;;;;;;;9.64;68.80;98640.27;112391;1197;59637;-78
2021/11/07 14:18:10;;;;;;;25.50;16.10;;;;;;;9.61;68.86;98640.13;112403;1195;65568;-77
2021/11/07 14:20:40;;;;;;;14.40;9.30;;;;;;;9.57;68.96;98639.99;112933;1190;61396;-76
2021/11/07 14:23:25;;;;;;;14.00;9.70;;;;;;;9.55;68.97;98642.49;113424;1190;62697;-78
2021/11/07 14:26:09;;;;;;;16.90;10.50;;;;;;;9.51;69.15;98635.48;113448;1190;59401;-80